createdAt,value
2022-10-21T00:00:12.511Z,82.84
2022-10-21T00:02:15.392Z,83.30
2022-10-21T00:04:18.009Z,83.41
2022-10-21T00:06:20.641Z,83.30
2022-10-21T00:08:25.244Z,82.91
2022-10-21T00:10:27.931Z,83.45
2022-10-21T00:12:31.300Z,83.41
2022-10-21T00:14:33.952Z,82.95
2022-10-21T00:16:36.532Z,83.14
2022-10-21T00:18:40.806Z,83.91
2022-10-21T00:20:43.431Z,84.16
2022-10-21T00:22:46.143Z,84.59
2022-10-21T00:24:50.169Z,84.92
2022-10-21T00:26:54.533Z,84.68
2022-10-21T00:28:57.648Z,85.07
2022-10-21T00:31:00.523Z,84.54
2022-10-21T00:33:03.450Z,83.95
2022-10-21T00:35:07.069Z,84.17
2022-10-21T00:37:09.965Z,83.88
2022-10-21T00:39:12.618Z,83.90
2022-10-21T00:41:18.521Z,83.07
2022-10-21T00:43:21.208Z,83.57
2022-10-21T00:45:24.761Z,83.51
2022-10-21T00:47:27.385Z,83.98
2022-10-21T00:49:37.894Z,83.79
2022-10-21T00:51:40.641Z,84.37
2022-10-21T00:53:46.070Z,84.53
2022-10-21T00:55:53.035Z,84.41
2022-10-21T00:57:57.766Z,85.29
2022-10-21T01:00:02.917Z,85.40
2022-10-21T01:02:06.050Z,85.46
2022-10-21T01:04:08.747Z,85.16
2022-10-21T01:06:13.478Z,85.69
2022-10-21T01:08:16.191Z,86.05
2022-10-21T01:10:19.566Z,86.17
2022-10-21T01:12:30.894Z,86.06
2022-10-21T01:14:53.400Z,86.53
2022-10-21T01:17:11.524Z,86.65
2022-10-21T01:20:02.938Z,86.61
2022-10-21T01:22:17.262Z,86.45
2022-10-21T01:24:49.579Z,85.47
2022-10-21T01:27:06.502Z,85.12
2022-10-21T01:29:48.825Z,86.15
2022-10-21T01:32:00.480Z,86.44
2022-10-21T01:34:11.153Z,86.18
2022-10-21T01:36:31.710Z,86.33
2022-10-21T01:38:42.309Z,86.71
2022-10-21T01:40:52.953Z,87.02
2022-10-21T01:42:59.049Z,86.84
2022-10-21T01:45:08.286Z,86.33
2022-10-21T01:47:17.907Z,85.95
2022-10-21T01:49:27.346Z,85.43
2022-10-21T01:51:31.194Z,85.16
2022-10-21T01:53:40.364Z,85.79
2022-10-21T01:55:45.328Z,86.08
2022-10-21T01:57:53.705Z,86.50
2022-10-21T02:00:01.278Z,87.45
2022-10-21T02:02:06.686Z,87.56
2022-10-21T02:04:13.740Z,87.91
2022-10-21T02:06:16.199Z,88.48
2022-10-21T02:08:18.958Z,88.68
2022-10-21T02:10:22.529Z,88.76
2022-10-21T02:12:27.882Z,88.42
2022-10-21T02:14:35.618Z,88.65
2022-10-21T02:16:40.900Z,88.99
2022-10-21T02:18:43.590Z,89.49
2022-10-21T02:20:52.120Z,89.14
2022-10-21T02:22:54.998Z,89.47
2022-10-21T02:25:01.713Z,89.42
2022-10-21T02:27:04.634Z,89.56
2022-10-21T02:29:07.524Z,90.22
2022-10-21T02:31:35.803Z,89.87
2022-10-21T02:33:49.480Z,89.27
2022-10-21T02:36:05.838Z,88.83
2022-10-21T02:38:15.597Z,88.29
2022-10-21T02:40:22.038Z,87.48
2022-10-21T02:42:29.693Z,87.50
2022-10-21T02:44:32.514Z,87.74
2022-10-21T02:46:38.223Z,88.11
2022-10-21T02:48:44.597Z,88.60
2022-10-21T02:50:47.328Z,88.62
2022-10-21T02:52:51.294Z,87.95
2022-10-21T02:54:53.894Z,87.29
2022-10-21T02:56:56.606Z,85.90
2022-10-21T02:58:59.239Z,85.54
2022-10-21T03:01:01.978Z,85.59
2022-10-21T03:03:04.838Z,85.19
2022-10-21T03:05:09.069Z,85.12
2022-10-21T03:07:11.710Z,84.35
2022-10-21T03:09:15.718Z,85.07
2022-10-21T03:11:18.340Z,84.69
2022-10-21T03:13:21.167Z,85.00
2022-10-21T03:15:23.804Z,85.41
2022-10-21T03:17:26.395Z,85.99
2022-10-21T03:19:29.704Z,86.67
2022-10-21T03:21:32.291Z,86.50
2022-10-21T03:23:34.940Z,86.42
2022-10-21T03:25:38.938Z,86.08
2022-10-21T03:27:41.688Z,85.16
2022-10-21T03:29:44.281Z,85.07
2022-10-21T03:31:46.905Z,85.22
2022-10-21T03:33:49.494Z,84.95
2022-10-21T03:35:52.111Z,84.28
2022-10-21T03:37:55.158Z,84.61
2022-10-21T03:39:57.789Z,85.40
2022-10-21T03:42:01.821Z,85.60
2022-10-21T03:44:04.942Z,85.99
2022-10-21T03:46:07.615Z,86.46
2022-10-21T03:48:10.293Z,85.84
2022-10-21T03:50:15.127Z,86.06
2022-10-21T03:52:21.877Z,86.42
2022-10-21T03:54:24.512Z,86.25
2022-10-21T03:56:27.306Z,85.83
2022-10-21T03:58:31.344Z,86.04
2022-10-21T04:00:34.059Z,86.76
2022-10-21T04:02:37.019Z,86.85
2022-10-21T04:04:39.919Z,87.07
2022-10-21T04:06:42.555Z,86.93
2022-10-21T04:08:45.371Z,87.09
2022-10-21T04:10:49.023Z,86.96
2022-10-21T04:12:51.684Z,87.18
2022-10-21T04:14:55.767Z,87.43
2022-10-21T04:17:06.767Z,87.01
2022-10-21T04:19:10.078Z,87.08
2022-10-21T04:21:12.791Z,86.50
2022-10-21T04:23:15.429Z,86.20
2022-10-21T04:25:18.146Z,86.63
2022-10-21T04:27:20.770Z,87.12
2022-10-21T04:29:23.430Z,86.13
2022-10-21T04:31:31.274Z,86.60
2022-10-21T04:33:34.976Z,86.56
2022-10-21T04:35:40.049Z,86.45
2022-10-21T04:37:43.191Z,86.63
2022-10-21T04:39:45.783Z,86.37
2022-10-21T04:41:50.546Z,86.29
2022-10-21T04:43:53.135Z,85.78
2022-10-21T04:45:56.102Z,86.25
2022-10-21T04:48:00.049Z,86.25
2022-10-21T04:50:02.715Z,86.35
2022-10-21T04:52:05.486Z,86.30
2022-10-21T04:54:08.112Z,86.47
2022-10-21T04:56:10.759Z,86.35
2022-10-21T04:58:13.852Z,86.26
2022-10-21T05:00:18.240Z,86.50
2022-10-21T05:02:23.037Z,86.12
2022-10-21T05:04:29.306Z,85.67
2022-10-21T05:06:31.915Z,85.66
2022-10-21T05:08:34.586Z,86.22
2022-10-21T05:10:37.295Z,86.03
2022-10-21T05:12:39.882Z,86.18
2022-10-21T05:14:42.543Z,86.62
2022-10-21T05:16:45.128Z,86.73
2022-10-21T05:18:47.734Z,86.77
2022-10-21T05:20:55.432Z,86.81
2022-10-21T05:22:58.061Z,85.75
2022-10-21T05:25:00.690Z,86.00
2022-10-21T05:27:03.372Z,86.44
2022-10-21T05:29:05.967Z,86.61
2022-10-21T05:31:08.588Z,86.47
2022-10-21T05:33:11.216Z,86.63
2022-10-21T05:35:13.780Z,86.70
2022-10-21T05:37:17.821Z,86.96
2022-10-21T05:39:20.433Z,87.25
2022-10-21T05:41:23.043Z,87.11
2022-10-21T05:43:26.086Z,87.41
2022-10-21T05:45:28.916Z,87.14
2022-10-21T05:47:31.538Z,87.35
2022-10-21T05:49:34.143Z,87.69
2022-10-21T05:51:36.821Z,88.02
2022-10-21T05:53:40.920Z,88.05
2022-10-21T05:55:43.509Z,88.46
2022-10-21T05:57:46.143Z,88.72
2022-10-21T05:59:48.780Z,87.70
2022-10-21T06:01:51.372Z,87.59
2022-10-21T06:03:53.980Z,87.82
2022-10-21T06:05:57.146Z,89.17
2022-10-21T06:07:59.734Z,88.22
2022-10-21T06:10:04.371Z,87.82
2022-10-21T06:12:07.678Z,88.31
2022-10-21T06:14:10.281Z,88.64
2022-10-21T06:16:13.864Z,89.00
2022-10-21T06:18:16.468Z,88.73
2022-10-21T06:20:19.581Z,89.23
2022-10-21T06:22:22.213Z,89.26
2022-10-21T06:24:25.452Z,89.41
2022-10-21T06:26:31.024Z,89.91
2022-10-21T06:28:37.818Z,89.35
2022-10-21T06:30:40.397Z,88.93
2022-10-21T06:32:42.969Z,87.92
2022-10-21T06:34:45.593Z,87.85
2022-10-21T06:36:48.193Z,87.63
2022-10-21T06:38:51.262Z,87.72
2022-10-21T06:40:54.322Z,88.17
2022-10-21T06:42:58.281Z,88.08
2022-10-21T06:45:00.895Z,88.17
2022-10-21T06:47:03.523Z,88.45
2022-10-21T06:49:06.118Z,88.04
2022-10-21T06:51:10.312Z,87.89
2022-10-21T06:53:12.932Z,87.11
2022-10-21T06:55:15.638Z,86.86
2022-10-21T06:57:18.256Z,86.84
2022-10-21T06:59:22.218Z,87.00
2022-10-21T07:01:34.882Z,86.89
2022-10-21T07:03:44.029Z,86.69
2022-10-21T07:05:46.593Z,86.57
2022-10-21T07:07:49.218Z,86.60
2022-10-21T07:09:52.498Z,86.28
2022-10-21T07:11:55.107Z,85.88
2022-10-21T07:13:57.873Z,85.67
2022-10-21T07:16:02.803Z,85.55
2022-10-21T07:18:05.425Z,85.03
2022-10-21T07:20:08.586Z,85.15
2022-10-21T07:22:11.151Z,84.66
2022-10-21T07:24:16.283Z,84.43
2022-10-21T07:26:21.777Z,84.10
2022-10-21T07:28:24.373Z,84.47
2022-10-21T07:30:26.969Z,83.80
2022-10-21T07:32:31.002Z,83.62
2022-10-21T07:34:33.615Z,83.77
2022-10-21T07:36:38.365Z,84.03
2022-10-21T07:38:43.773Z,83.59
2022-10-21T07:40:46.446Z,84.47
2022-10-21T07:42:49.177Z,84.44
2022-10-21T07:44:53.090Z,84.72
2022-10-21T07:46:56.359Z,83.60
2022-10-21T07:49:00.344Z,83.89
2022-10-21T07:51:04.605Z,83.75
2022-10-21T07:53:12.474Z,83.92
2022-10-21T07:55:16.873Z,83.43
2022-10-21T07:57:19.472Z,83.62
2022-10-21T07:59:23.068Z,83.34
2022-10-21T08:01:25.853Z,83.93
2022-10-21T08:03:29.196Z,83.69
2022-10-21T08:05:33.170Z,83.89
2022-10-21T08:07:36.019Z,83.76
2022-10-21T08:09:38.625Z,83.64
2022-10-21T08:11:41.468Z,83.93
2022-10-21T08:13:44.083Z,82.90
2022-10-21T08:15:48.070Z,83.34
2022-10-21T08:17:50.678Z,83.34
2022-10-21T08:19:53.295Z,83.59
2022-10-21T08:21:58.304Z,83.22
2022-10-21T08:24:03.487Z,83.44
2022-10-21T08:26:08.691Z,83.22
2022-10-21T08:28:11.320Z,82.66
2022-10-21T08:30:15.473Z,83.13
2022-10-21T08:32:18.048Z,82.71
2022-10-21T08:34:20.702Z,82.56
2022-10-21T08:36:25.880Z,82.87
2022-10-21T08:38:29.821Z,82.80
2022-10-21T08:40:38.226Z,83.44
2022-10-21T08:42:42.565Z,82.73
2022-10-21T08:44:53.769Z,82.70
2022-10-21T08:47:00.793Z,82.27
2022-10-21T08:49:07.154Z,81.36
2022-10-21T08:51:23.216Z,81.79
2022-10-21T08:53:34.661Z,81.87
2022-10-21T08:55:40.060Z,81.96
2022-10-21T08:57:42.885Z,81.53
2022-10-21T08:59:46.646Z,81.60
2022-10-21T09:04:35.242Z,81.04
2022-10-21T09:06:45.982Z,82.25
2022-10-21T09:09:00.624Z,82.40
2022-10-21T09:11:10.819Z,82.78
2022-10-21T09:13:21.615Z,83.81
2022-10-21T09:15:28.612Z,84.21
2022-10-21T09:17:39.838Z,85.05
2022-10-21T09:19:49.767Z,85.39
2022-10-21T09:22:33.242Z,85.64
2022-10-21T09:24:36.001Z,85.84
2022-10-21T09:26:41.582Z,87.08
2022-10-21T09:28:44.469Z,86.86
2022-10-21T09:30:48.552Z,87.44
2022-10-21T09:32:56.357Z,87.37
2022-10-21T09:35:03.929Z,88.29
2022-10-21T09:37:09.285Z,88.57
2022-10-21T09:39:17.387Z,89.71
2022-10-21T09:41:24.490Z,89.76
2022-10-21T09:43:28.236Z,90.16
2022-10-21T09:45:34.892Z,89.89
2022-10-21T09:47:38.097Z,90.17
2022-10-21T09:50:06.376Z,89.52
2022-10-21T09:52:08.465Z,89.80
2022-10-21T09:54:15.971Z,89.98
2022-10-21T09:56:23.202Z,89.99
2022-10-21T09:58:27.611Z,89.38
2022-10-21T10:00:46.534Z,89.26
2022-10-21T10:02:50.287Z,89.83
2022-10-21T10:04:52.901Z,89.64
2022-10-21T10:06:55.522Z,89.53
2022-10-21T10:09:08.231Z,89.56
2022-10-21T10:11:20.277Z,89.51
2022-10-21T10:13:27.246Z,89.47
2022-10-21T10:15:34.322Z,89.44
2022-10-21T10:17:39.666Z,89.22
2022-10-21T10:19:42.300Z,89.04
2022-10-21T10:21:45.461Z,88.92
2022-10-21T10:23:50.465Z,89.04
2022-10-21T10:25:53.408Z,88.98
2022-10-21T10:27:59.286Z,88.49
2022-10-21T10:30:04.172Z,89.02
2022-10-21T10:32:15.392Z,88.31
2022-10-21T10:34:23.017Z,88.27
2022-10-21T10:36:30.213Z,88.35
2022-10-21T10:38:35.975Z,88.27
2022-10-21T10:40:43.237Z,87.51
2022-10-21T10:42:46.879Z,87.13
2022-10-21T10:44:53.872Z,86.74
2022-10-21T10:46:59.674Z,85.96
2022-10-21T10:49:07.690Z,87.60
2022-10-21T10:51:25.968Z,87.90
2022-10-21T10:53:31.813Z,88.05
2022-10-21T10:55:35.243Z,87.73
2022-10-21T10:57:44.677Z,87.45
2022-10-21T11:00:10.372Z,88.04
2022-10-21T11:02:37.077Z,89.04
2022-10-21T11:04:42.527Z,89.14
2022-10-21T11:06:49.928Z,89.63
2022-10-21T11:08:56.487Z,90.01
2022-10-21T11:11:02.977Z,89.68
2022-10-21T11:13:11.185Z,88.34
2022-10-21T11:15:16.130Z,88.36
2022-10-21T11:17:22.204Z,88.00
2022-10-21T11:19:35.146Z,87.86
2022-10-21T11:21:46.569Z,87.85
2022-10-21T11:24:15.731Z,87.18
2022-10-21T11:26:31.393Z,87.08
2022-10-21T11:28:39.967Z,88.09
2022-10-21T11:30:59.486Z,88.54
2022-10-21T11:33:05.320Z,90.01
2022-10-21T11:35:16.869Z,89.72
2022-10-21T11:37:28.496Z,89.64
2022-10-21T11:39:44.657Z,89.65
2022-10-21T11:41:53.872Z,89.00
2022-10-21T11:44:09.349Z,89.05
2022-10-21T11:46:16.457Z,89.33
2022-10-21T11:48:33.035Z,88.66
2022-10-21T11:50:45.474Z,88.65
2022-10-21T11:53:11.749Z,88.30
2022-10-21T11:55:38.604Z,87.88
2022-10-21T11:57:50.749Z,87.57
2022-10-21T12:00:04.872Z,86.32
2022-10-21T12:02:15.984Z,85.98
2022-10-21T12:04:45.734Z,85.18
2022-10-21T12:06:59.175Z,83.81
2022-10-21T12:09:06.276Z,85.83
2022-10-21T12:11:14.460Z,86.22
2022-10-21T12:13:23.537Z,84.56
2022-10-21T12:15:36.052Z,85.21
2022-10-21T12:17:39.023Z,84.46
2022-10-21T12:19:42.569Z,84.04
2022-10-21T12:21:46.515Z,84.52
2022-10-21T12:23:56.270Z,82.66
2022-10-21T12:26:10.665Z,83.24
2022-10-21T12:28:20.784Z,83.19
2022-10-21T12:30:32.012Z,83.23
2022-10-21T12:32:44.267Z,82.25
2022-10-21T12:34:47.683Z,82.55
2022-10-21T12:36:54.046Z,81.78
2022-10-21T12:38:59.067Z,83.32
2022-10-21T12:41:34.330Z,81.63
2022-10-21T12:43:36.993Z,81.59
2022-10-21T12:45:39.878Z,79.79
2022-10-21T12:47:46.041Z,79.64
2022-10-21T12:50:05.247Z,77.48
2022-10-21T12:52:12.482Z,79.71
2022-10-21T12:54:20.527Z,80.43
2022-10-21T12:56:31.345Z,81.49
2022-10-21T12:58:38.731Z,79.76
2022-10-21T13:00:57.050Z,79.17
2022-10-21T13:03:02.619Z,78.93
2022-10-21T13:05:05.332Z,79.06
2022-10-21T13:07:29.010Z,80.62
2022-10-21T13:09:37.882Z,80.31
2022-10-21T13:11:41.316Z,77.51
2022-10-21T13:13:45.561Z,77.79
2022-10-21T13:15:48.680Z,77.00
2022-10-21T13:17:53.333Z,78.71
2022-10-21T13:19:57.509Z,77.33
2022-10-21T13:22:11.265Z,78.17
2022-10-21T13:24:33.050Z,77.78
2022-10-21T13:26:41.240Z,76.32
2022-10-21T13:28:56.910Z,77.76
2022-10-21T13:31:00.664Z,77.89
2022-10-21T13:33:05.594Z,76.45
2022-10-21T13:35:31.430Z,77.00
2022-10-21T13:37:37.386Z,75.11
2022-10-21T13:39:40.594Z,74.75
2022-10-21T13:41:44.689Z,75.16
2022-10-21T13:43:50.584Z,77.26
2022-10-21T13:46:04.179Z,76.29
2022-10-21T13:48:13.046Z,77.21
2022-10-21T13:50:21.166Z,77.45
2022-10-21T13:52:28.586Z,78.83
2022-10-21T13:54:36.085Z,78.83
2022-10-21T13:56:40.023Z,77.67
2022-10-21T13:58:44.428Z,78.54
2022-10-21T14:00:47.080Z,78.40
2022-10-21T14:02:51.388Z,78.00
2022-10-21T14:04:54.071Z,78.13
2022-10-21T14:06:58.783Z,80.36
2022-10-21T14:09:04.070Z,79.07
2022-10-21T14:11:15.133Z,80.03
2022-10-21T14:13:20.752Z,80.56
2022-10-21T14:15:34.160Z,80.37
2022-10-21T14:17:43.200Z,81.31
2022-10-21T14:19:49.979Z,81.43
2022-10-21T14:21:55.157Z,80.44
2022-10-21T14:23:58.508Z,79.23
2022-10-21T14:26:06.743Z,80.64
2022-10-21T14:28:12.120Z,79.17
2022-10-21T14:30:19.694Z,77.26
2022-10-21T14:32:26.175Z,78.57
2022-10-21T14:34:30.900Z,79.77
2022-10-21T14:36:33.580Z,79.20
2022-10-21T14:38:40.719Z,79.94
2022-10-21T14:40:43.681Z,78.57
2022-10-21T14:42:49.717Z,79.90
2022-10-21T14:45:03.663Z,76.88
2022-10-21T14:47:06.949Z,78.54
2022-10-21T14:49:22.603Z,77.55
2022-10-21T14:51:26.323Z,76.96
2022-10-21T14:53:33.418Z,75.96
2022-10-21T14:55:40.251Z,75.79
2022-10-21T14:57:45.305Z,74.26
2022-10-21T14:59:52.004Z,75.08
2022-10-21T15:01:54.782Z,76.39
2022-10-21T15:03:59.408Z,76.31
2022-10-21T15:06:12.280Z,78.84
2022-10-21T15:08:29.097Z,78.35
2022-10-21T15:10:33.821Z,78.90
2022-10-21T15:12:41.383Z,79.62
2022-10-21T15:14:44.255Z,80.34
2022-10-21T15:16:48.601Z,82.53
2022-10-21T15:18:53.919Z,82.71
2022-10-21T15:20:59.452Z,82.36
2022-10-21T15:23:03.518Z,83.48
2022-10-21T15:25:08.934Z,83.85
2022-10-21T15:27:18.448Z,85.61
2022-10-21T15:29:28.355Z,85.80
2022-10-21T15:31:31.007Z,85.99
2022-10-21T15:33:33.603Z,85.63
2022-10-21T15:35:36.200Z,85.21
2022-10-21T15:37:39.077Z,84.97
2022-10-21T15:39:45.344Z,83.61
2022-10-21T15:41:49.728Z,83.69
2022-10-21T15:43:58.229Z,84.70
2022-10-21T15:46:00.864Z,84.95
2022-10-21T15:48:03.480Z,85.51
2022-10-21T15:50:14.083Z,85.27
2022-10-21T15:52:16.730Z,86.14
2022-10-21T15:54:20.335Z,86.33
2022-10-21T15:56:24.709Z,86.66
2022-10-21T15:58:27.360Z,84.33
2022-10-21T16:00:30.046Z,85.05
2022-10-21T16:02:32.640Z,84.67
2022-10-21T16:04:35.254Z,85.12
2022-10-21T16:06:39.395Z,85.11
2022-10-21T16:08:42.214Z,85.25
2022-10-21T16:10:47.742Z,86.15
2022-10-21T16:12:52.416Z,85.67
2022-10-21T16:14:55.817Z,85.43
2022-10-21T16:16:59.190Z,86.53
2022-10-21T16:19:01.793Z,87.57
2022-10-21T16:21:04.522Z,87.39
2022-10-21T16:23:07.175Z,87.54
2022-10-21T16:25:10.159Z,87.78
2022-10-21T16:27:14.532Z,87.96
2022-10-21T16:29:25.979Z,88.18
2022-10-21T16:31:28.714Z,87.46
2022-10-21T16:33:31.372Z,88.14
2022-10-21T16:35:34.024Z,89.00
2022-10-21T16:37:36.777Z,88.94
2022-10-21T16:39:40.214Z,89.60
2022-10-21T16:41:42.882Z,89.45
2022-10-21T16:43:46.115Z,89.13
2022-10-21T16:45:50.114Z,89.11
2022-10-21T16:47:56.644Z,89.38
2022-10-21T16:50:02.312Z,89.27
2022-10-21T16:52:04.952Z,89.41
2022-10-21T16:54:07.709Z,88.66
2022-10-21T16:56:10.375Z,89.36
2022-10-21T16:58:12.992Z,89.35
2022-10-21T17:00:16.084Z,89.89
2022-10-21T17:02:21.348Z,90.18
2022-10-21T17:04:23.982Z,90.25
2022-10-21T17:06:27.838Z,90.79
2022-10-21T17:08:30.589Z,90.82
2022-10-21T17:10:33.283Z,90.54
2022-10-21T17:12:35.935Z,90.93
2022-10-21T17:14:38.765Z,91.04
2022-10-21T17:16:41.604Z,91.09
2022-10-21T17:18:45.633Z,91.04
2022-10-21T17:20:50.706Z,91.23
2022-10-21T17:22:53.320Z,91.22
2022-10-21T17:24:55.962Z,91.23
2022-10-21T17:26:58.597Z,91.47
2022-10-21T17:29:01.334Z,91.46
2022-10-21T17:31:03.972Z,91.65
2022-10-21T17:33:09.377Z,91.70
2022-10-21T17:35:19.502Z,92.36
2022-10-21T17:37:22.518Z,92.25
2022-10-21T17:39:25.493Z,92.20
2022-10-21T17:41:29.061Z,92.28
2022-10-21T17:43:31.785Z,92.32
2022-10-21T17:45:34.572Z,92.46
2022-10-21T17:47:37.408Z,92.38
2022-10-21T17:49:41.575Z,92.64
2022-10-21T17:51:45.628Z,92.39
2022-10-21T17:53:49.952Z,92.67
2022-10-21T17:56:00.034Z,92.57
2022-10-21T17:58:02.660Z,92.50
2022-10-21T18:00:06.733Z,92.34
2022-10-21T18:02:11.270Z,92.49
2022-10-21T18:04:13.976Z,92.55
2022-10-21T18:06:17.666Z,92.28
2022-10-21T18:08:21.647Z,92.06
2022-10-21T18:10:24.650Z,91.86
2022-10-21T18:12:27.390Z,92.13
2022-10-21T18:14:30.050Z,91.80
2022-10-21T18:16:32.779Z,92.10
2022-10-21T18:18:38.086Z,92.08
2022-10-21T18:20:40.793Z,92.08
2022-10-21T18:22:43.520Z,92.25
2022-10-21T18:24:47.892Z,92.44
2022-10-21T18:26:50.549Z,92.58
2022-10-21T18:28:56.939Z,92.54
2022-10-21T18:30:59.591Z,92.79
2022-10-21T18:33:02.343Z,93.17
2022-10-21T18:35:06.675Z,93.00
2022-10-21T18:37:09.394Z,93.06
2022-10-21T18:39:13.373Z,93.06
2022-10-21T18:41:20.543Z,93.05
2022-10-21T18:43:23.840Z,93.47
2022-10-21T18:45:26.466Z,93.24
2022-10-21T18:47:29.102Z,93.22
2022-10-21T18:49:31.891Z,93.31
2022-10-21T18:51:35.060Z,93.37
2022-10-21T18:53:38.984Z,93.45
2022-10-21T18:55:41.818Z,93.36
2022-10-21T18:57:46.023Z,93.45
2022-10-21T18:59:48.624Z,93.44
2022-10-21T19:01:52.904Z,94.13
2022-10-21T19:03:56.651Z,93.57
2022-10-21T19:06:16.318Z,93.63
2022-10-21T19:08:19.073Z,93.69
2022-10-21T19:10:21.769Z,93.72
2022-10-21T19:12:24.468Z,93.77
2022-10-21T19:14:28.671Z,93.89
2022-10-21T19:16:31.622Z,93.93
2022-10-21T19:18:34.212Z,93.94
2022-10-21T19:20:36.957Z,93.90
2022-10-21T19:22:39.620Z,93.89
2022-10-21T19:24:42.330Z,94.20
2022-10-21T19:26:46.332Z,93.89
2022-10-21T19:28:49.239Z,93.79
2022-10-21T19:30:53.206Z,93.68
2022-10-21T19:32:58.484Z,93.68
2022-10-21T19:35:01.120Z,93.74
2022-10-21T19:37:03.841Z,93.79
2022-10-21T19:39:06.609Z,93.55
2022-10-21T19:41:10.826Z,93.94
2022-10-21T19:43:13.544Z,94.07
2022-10-21T19:45:18.072Z,94.23
2022-10-21T19:47:22.163Z,94.06
2022-10-21T19:49:24.854Z,93.88
2022-10-21T19:51:27.700Z,93.86
2022-10-21T19:53:30.665Z,94.13
2022-10-21T19:55:33.719Z,94.41
2022-10-21T19:57:36.327Z,94.31
2022-10-21T19:59:39.063Z,94.12
2022-10-21T20:01:42.147Z,94.38
2022-10-21T20:03:47.604Z,94.25
2022-10-21T20:05:50.253Z,94.77
2022-10-21T20:07:52.888Z,94.69
2022-10-21T20:09:55.538Z,94.32
2022-10-21T20:11:58.182Z,94.25
2022-10-21T20:14:01.081Z,94.22
2022-10-21T20:16:03.982Z,94.31
2022-10-21T20:18:07.934Z,94.35
2022-10-21T20:20:12.251Z,94.67
2022-10-21T20:22:14.891Z,94.45
2022-10-21T20:24:17.865Z,94.65
2022-10-21T20:26:22.529Z,94.47
2022-10-21T20:28:27.400Z,94.24
2022-10-21T20:30:30.040Z,94.92
2022-10-21T20:32:33.774Z,94.61
2022-10-21T20:34:37.669Z,94.50
2022-10-21T20:36:42.022Z,94.74
2022-10-21T20:38:45.589Z,94.91
2022-10-21T20:40:53.734Z,94.75
2022-10-21T20:42:56.376Z,94.81
2022-10-21T20:44:58.991Z,95.00
2022-10-21T20:47:01.812Z,94.72
2022-10-21T20:49:05.990Z,94.97
2022-10-21T20:51:10.678Z,94.56
2022-10-21T20:53:14.707Z,94.91
2022-10-21T20:55:17.864Z,94.59
2022-10-21T20:57:20.722Z,94.62
2022-10-21T20:59:23.433Z,94.94
2022-10-21T21:01:27.755Z,95.06
2022-10-21T21:03:30.423Z,95.03
2022-10-21T21:05:38.138Z,94.90
2022-10-21T21:07:41.949Z,94.70
2022-10-21T21:10:01.632Z,94.61
2022-10-21T21:12:05.615Z,95.05
2022-10-21T21:14:08.329Z,94.78
2022-10-21T21:16:13.072Z,95.11
2022-10-21T21:18:15.673Z,94.81
2022-10-21T21:20:18.741Z,95.19
2022-10-21T21:22:21.920Z,94.54
2022-10-21T21:24:24.733Z,94.97
2022-10-21T21:26:31.568Z,94.64
2022-10-21T21:28:36.295Z,95.07
2022-10-21T21:30:39.123Z,95.07
2022-10-21T21:32:42.027Z,94.64
2022-10-21T21:34:45.074Z,95.02
2022-10-21T21:36:47.737Z,94.56
2022-10-21T21:38:51.566Z,95.17
2022-10-21T21:40:54.902Z,95.18
2022-10-21T21:42:58.958Z,94.78
2022-10-21T21:45:01.579Z,95.22
2022-10-21T21:47:04.334Z,95.18
2022-10-21T21:49:06.890Z,95.25
2022-10-21T21:51:11.290Z,94.95
2022-10-21T21:53:15.960Z,94.78
2022-10-21T21:55:19.125Z,95.05
2022-10-21T21:57:29.015Z,94.75
2022-10-21T21:59:32.977Z,95.08
2022-10-21T22:01:35.743Z,95.12
2022-10-21T22:03:38.583Z,94.74
2022-10-21T22:05:41.242Z,94.99
2022-10-21T22:07:43.866Z,94.78
2022-10-21T22:09:46.520Z,94.52
2022-10-21T22:11:49.214Z,94.81
2022-10-21T22:13:51.877Z,94.49
2022-10-21T22:15:55.880Z,95.32
2022-10-21T22:17:58.521Z,94.50
2022-10-21T22:20:01.098Z,95.04
2022-10-21T22:22:03.835Z,94.67
2022-10-21T22:24:06.720Z,94.62
2022-10-21T22:26:10.525Z,94.55
2022-10-21T22:28:13.139Z,94.65
2022-10-21T22:30:16.356Z,94.79
2022-10-21T22:32:20.338Z,95.35
2022-10-21T22:34:23.134Z,94.90
2022-10-21T22:36:26.938Z,94.85
2022-10-21T22:38:30.100Z,95.48
2022-10-21T22:40:32.795Z,94.56
2022-10-21T22:42:35.476Z,94.96
2022-10-21T22:44:38.106Z,94.81
2022-10-21T22:46:40.694Z,94.78
2022-10-21T22:48:44.711Z,95.24
2022-10-21T22:50:48.353Z,94.93
2022-10-21T22:52:50.996Z,95.23
2022-10-21T22:54:53.618Z,95.49
2022-10-21T22:56:56.217Z,94.85
2022-10-21T22:58:59.294Z,94.92
2022-10-21T23:01:07.999Z,95.56
2022-10-21T23:03:10.641Z,95.62
2022-10-21T23:05:14.650Z,94.89
2022-10-21T23:07:17.285Z,95.18
2022-10-21T23:09:19.908Z,95.46
2022-10-21T23:11:22.594Z,95.30
2022-10-21T23:13:25.384Z,94.90
2022-10-21T23:15:28.054Z,95.31
2022-10-21T23:17:31.186Z,95.20
2022-10-21T23:19:33.825Z,94.58
2022-10-21T23:21:39.752Z,95.07
2022-10-21T23:23:42.371Z,94.75
2022-10-21T23:25:44.997Z,95.13
2022-10-21T23:27:47.645Z,94.54
2022-10-21T23:29:50.261Z,94.70
2022-10-21T23:31:52.958Z,95.31
2022-10-21T23:33:55.591Z,94.82
2022-10-21T23:35:58.186Z,94.74
2022-10-21T23:38:02.477Z,94.74
2022-10-21T23:40:05.629Z,94.74
2022-10-21T23:42:08.219Z,94.82
2022-10-21T23:44:10.872Z,95.13
2022-10-21T23:46:13.529Z,95.07
2022-10-21T23:48:16.344Z,94.51
2022-10-21T23:50:19.143Z,94.79
2022-10-21T23:52:21.776Z,95.32
2022-10-21T23:54:25.766Z,94.75
2022-10-21T23:56:28.366Z,95.29
2022-10-21T23:58:31.009Z,95.35
